createdAt,value
2019-05-02T00:01:01.220Z,43.00
2019-05-02T00:03:31.392Z,43.40
2019-05-02T00:06:03.018Z,46.07
2019-05-02T00:08:33.196Z,44.43
2019-05-02T00:11:03.423Z,45.10
2019-05-02T00:13:32.618Z,46.77
2019-05-02T00:16:01.812Z,44.53
2019-05-02T00:18:32.063Z,45.03
2019-05-02T00:21:03.140Z,46.53
2019-05-02T00:23:32.344Z,45.33
2019-05-02T00:26:01.396Z,47.13
2019-05-02T00:28:30.491Z,45.17
2019-05-02T00:30:59.596Z,45.30
2019-05-02T00:33:29.245Z,43.83
2019-05-02T00:35:59.482Z,44.13
2019-05-02T00:38:33.368Z,42.03
2019-05-02T00:41:02.328Z,46.00
2019-05-02T00:43:34.584Z,44.27
2019-05-02T00:46:01.130Z,42.00
2019-05-02T00:48:38.159Z,44.73
2019-05-02T00:51:07.230Z,43.67
2019-05-02T00:53:36.346Z,46.30
2019-05-02T00:56:09.175Z,45.70
2019-05-02T00:58:36.494Z,47.10
2019-05-02T01:01:39.832Z,42.57
2019-05-02T01:04:15.324Z,44.87
2019-05-02T01:06:44.654Z,43.43
2019-05-02T01:09:15.327Z,46.17
2019-05-02T01:11:52.577Z,48.33
2019-05-02T01:14:21.512Z,45.93
2019-05-02T01:16:54.346Z,46.10
2019-05-02T01:19:21.345Z,44.03
2019-05-02T01:21:50.453Z,47.17
2019-05-02T01:24:19.532Z,47.57
2019-05-02T01:26:59.820Z,46.53
2019-05-02T01:29:34.180Z,46.33
2019-05-02T01:32:10.532Z,48.40
2019-05-02T01:35:10.556Z,48.07
2019-05-02T01:38:17.064Z,48.87
2019-05-02T01:40:52.605Z,45.67
2019-05-02T01:43:25.334Z,45.00
2019-05-02T01:45:54.882Z,44.53
2019-05-02T01:48:24.212Z,47.70
2019-05-02T01:50:53.243Z,49.17
2019-05-02T01:53:22.305Z,47.30
2019-05-02T01:55:51.892Z,46.13
2019-05-02T01:58:22.927Z,48.93
2019-05-02T02:00:51.998Z,44.80
2019-05-02T02:03:21.185Z,44.93
2019-05-02T02:05:50.188Z,47.27
2019-05-02T02:08:19.245Z,48.73
2019-05-02T02:10:50.722Z,48.20
2019-05-02T02:13:18.968Z,47.40
2019-05-02T02:15:48.157Z,45.23
2019-05-02T02:18:22.212Z,45.57
2019-05-02T02:21:11.240Z,46.30
2019-05-02T02:23:57.886Z,49.90
2019-05-02T02:26:26.935Z,48.73
2019-05-02T02:28:56.093Z,50.23
2019-05-02T02:31:25.635Z,48.30
2019-05-02T02:33:55.057Z,47.70
2019-05-02T02:36:31.255Z,48.33
2019-05-02T02:38:55.040Z,48.43
2019-05-02T02:41:24.093Z,44.87
2019-05-02T02:44:21.137Z,49.30
2019-05-02T02:46:50.821Z,46.73
2019-05-02T02:49:24.001Z,50.57
2019-05-02T02:51:50.630Z,48.40
2019-05-02T02:54:19.665Z,47.83
2019-05-02T02:56:48.662Z,47.03
2019-05-02T02:59:19.365Z,46.57
2019-05-02T03:01:48.510Z,48.63
2019-05-02T03:04:17.477Z,48.50
2019-05-02T03:06:47.202Z,46.30
2019-05-02T03:09:20.141Z,46.40
2019-05-02T03:12:06.226Z,45.90
2019-05-02T03:14:41.143Z,44.63
2019-05-02T03:17:09.027Z,47.67
2019-05-02T03:19:38.100Z,45.97
2019-05-02T03:22:07.624Z,47.73
2019-05-02T03:24:44.255Z,45.27
2019-05-02T03:27:08.160Z,44.30
2019-05-02T03:29:44.330Z,44.87
2019-05-02T03:32:16.900Z,45.93
2019-05-02T03:34:53.009Z,43.17
2019-05-02T03:37:13.950Z,45.50
2019-05-02T03:39:42.333Z,43.63
2019-05-02T03:42:11.450Z,46.37
2019-05-02T03:44:40.466Z,48.10
2019-05-02T03:47:09.574Z,47.60
2019-05-02T03:49:41.070Z,47.53
2019-05-02T03:52:09.507Z,44.30
2019-05-02T03:54:48.449Z,47.27
2019-05-02T03:57:09.228Z,45.13
2019-05-02T03:59:41.597Z,46.30
2019-05-02T04:02:14.081Z,47.30
2019-05-02T04:04:40.263Z,48.67
2019-05-02T04:07:10.123Z,49.67
2019-05-02T04:09:41.977Z,49.07
2019-05-02T04:12:18.739Z,47.47
2019-05-02T04:14:40.834Z,48.87
2019-05-02T04:17:11.232Z,51.37
2019-05-02T04:19:40.413Z,51.57
2019-05-02T04:22:11.911Z,52.70
2019-05-02T04:24:40.773Z,52.10
2019-05-02T04:27:09.829Z,51.07
2019-05-02T04:29:39.189Z,48.30
2019-05-02T04:32:11.818Z,50.47
2019-05-02T04:34:39.000Z,53.20
2019-05-02T04:37:07.950Z,49.50
2019-05-02T04:39:39.123Z,51.23
2019-05-02T04:42:13.217Z,53.30
2019-05-02T04:44:44.639Z,51.60
2019-05-02T04:47:14.150Z,50.83
2019-05-02T04:49:39.929Z,52.17
2019-05-02T04:52:12.284Z,52.27
2019-05-02T04:54:40.131Z,51.67
2019-05-02T04:57:09.153Z,52.07
2019-05-02T04:59:39.480Z,53.30
2019-05-02T05:02:09.477Z,52.93
2019-05-02T05:04:42.766Z,52.23
2019-05-02T05:07:09.570Z,48.47
2019-05-02T05:09:40.017Z,49.30
2019-05-02T05:12:09.780Z,47.83
2019-05-02T05:14:43.104Z,50.37
2019-05-02T05:17:09.644Z,46.13
2019-05-02T05:19:38.564Z,48.07
2019-05-02T05:22:11.720Z,49.60
2019-05-02T05:24:43.487Z,46.43
2019-05-02T05:27:13.392Z,47.63
2019-05-02T05:29:45.910Z,48.47
2019-05-02T05:32:13.822Z,47.60
2019-05-02T05:34:42.631Z,47.10
2019-05-02T05:37:13.385Z,46.67
2019-05-02T05:39:43.039Z,46.23
2019-05-02T05:42:12.906Z,47.57
2019-05-02T05:44:41.795Z,47.80
2019-05-02T05:47:12.220Z,49.50
2019-05-02T05:49:41.547Z,47.20
2019-05-02T05:52:10.505Z,49.03
2019-05-02T05:54:42.024Z,48.67
2019-05-02T05:57:12.128Z,48.87
2019-05-02T05:59:40.582Z,49.47
2019-05-02T06:02:12.654Z,50.60
2019-05-02T06:04:40.560Z,51.90
2019-05-02T06:07:09.548Z,52.30
2019-05-02T06:09:38.746Z,52.33
2019-05-02T06:12:07.714Z,54.73
2019-05-02T06:14:36.564Z,55.47
2019-05-02T06:17:05.575Z,58.57
2019-05-02T06:19:34.486Z,56.53
2019-05-02T06:22:03.490Z,57.73
2019-05-02T06:24:34.020Z,58.63
2019-05-02T06:27:02.999Z,58.37
2019-05-02T06:29:31.971Z,59.57
2019-05-02T06:32:02.854Z,56.73
2019-05-02T06:34:31.919Z,63.77
2019-05-02T06:37:01.237Z,65.17
2019-05-02T06:39:32.008Z,66.37
2019-05-02T06:42:01.054Z,64.83
2019-05-02T06:44:30.023Z,65.70
2019-05-02T06:47:03.920Z,70.83
2019-05-02T06:49:29.826Z,63.70
2019-05-02T06:51:58.693Z,64.00
2019-05-02T06:54:27.705Z,64.43
2019-05-02T06:56:56.749Z,64.73
2019-05-02T06:59:25.832Z,66.37
2019-05-02T07:01:57.551Z,63.67
2019-05-02T07:04:25.607Z,62.47
2019-05-02T07:07:13.791Z,61.43
2019-05-02T07:09:43.213Z,60.63
2019-05-02T07:12:14.813Z,62.10
2019-05-02T07:14:45.699Z,61.67
2019-05-02T07:17:32.427Z,58.83
2019-05-02T07:20:05.325Z,59.20
2019-05-02T07:22:38.618Z,53.57
2019-05-02T07:25:06.861Z,53.07
2019-05-02T07:27:39.026Z,53.80
2019-05-02T07:30:08.995Z,54.37
2019-05-02T07:32:37.930Z,54.60
2019-05-02T07:35:07.147Z,52.23
2019-05-02T07:37:36.060Z,55.70
2019-05-02T07:40:05.883Z,55.03
2019-05-02T07:42:36.897Z,51.53
2019-05-02T07:45:09.322Z,53.97
2019-05-02T07:47:40.371Z,51.77
2019-05-02T07:50:10.416Z,51.73
2019-05-02T07:52:41.071Z,51.60
2019-05-02T07:55:10.223Z,50.00
2019-05-02T07:57:39.197Z,50.83
2019-05-02T08:00:09.042Z,49.43
2019-05-02T08:02:37.971Z,51.93
2019-05-02T08:05:08.810Z,49.33
2019-05-02T08:07:38.117Z,51.17
2019-05-02T08:10:07.399Z,48.90
2019-05-02T08:12:36.362Z,50.53
2019-05-02T08:15:12.551Z,51.83
2019-05-02T08:17:38.109Z,51.70
2019-05-02T08:20:08.617Z,52.17
2019-05-02T08:22:37.827Z,50.13
2019-05-02T08:25:10.574Z,52.40
2019-05-02T08:27:44.338Z,51.33
2019-05-02T08:30:26.845Z,55.40
2019-05-02T08:32:55.795Z,53.83
2019-05-02T08:35:27.887Z,50.17
2019-05-02T08:37:56.278Z,49.30
2019-05-02T08:40:25.458Z,51.37
2019-05-02T08:42:54.441Z,52.63
2019-05-02T08:45:23.438Z,54.07
2019-05-02T08:47:52.353Z,53.93
2019-05-02T08:50:21.272Z,52.10
2019-05-02T08:52:50.315Z,50.17
2019-05-02T08:55:19.179Z,47.27
2019-05-02T08:57:48.153Z,49.13
2019-05-02T09:00:17.327Z,46.73
2019-05-02T09:02:46.356Z,46.20
2019-05-02T09:05:15.462Z,46.00
2019-05-02T09:07:44.435Z,48.20
2019-05-02T09:10:13.691Z,47.67
2019-05-02T09:12:45.477Z,46.50
2019-05-02T09:15:13.766Z,44.57
2019-05-02T09:17:51.771Z,45.07
2019-05-02T09:20:20.577Z,43.40
2019-05-02T09:22:51.381Z,43.73
2019-05-02T09:25:18.378Z,41.63
2019-05-02T09:27:47.244Z,44.20
2019-05-02T09:30:17.209Z,41.67
2019-05-02T09:32:47.026Z,43.33
2019-05-02T09:35:16.070Z,40.27
2019-05-02T09:37:45.038Z,41.10
2019-05-02T09:40:16.649Z,40.33
2019-05-02T09:42:47.484Z,43.43
2019-05-02T09:45:27.478Z,43.00
2019-05-02T09:48:01.503Z,40.63
2019-05-02T09:50:29.485Z,41.37
2019-05-02T09:52:54.999Z,41.07
2019-05-02T09:55:24.069Z,41.63
2019-05-02T09:57:53.222Z,41.80
2019-05-02T10:00:36.390Z,40.40
2019-05-02T10:03:06.862Z,41.30
2019-05-02T10:05:35.921Z,42.33
2019-05-02T10:08:06.846Z,40.57
2019-05-02T10:10:37.141Z,40.37
2019-05-02T10:13:07.624Z,40.40
2019-05-02T10:15:36.719Z,38.47
2019-05-02T10:18:10.638Z,42.13
2019-05-02T10:20:36.927Z,43.50
2019-05-02T10:23:06.044Z,41.67
2019-05-02T10:25:38.453Z,42.40
2019-05-02T10:28:05.925Z,39.03
2019-05-02T10:30:36.126Z,40.03
2019-05-02T10:33:05.674Z,40.83
2019-05-02T10:35:40.720Z,42.17
2019-05-02T10:38:09.541Z,38.88
2019-05-02T10:40:39.698Z,39.25
2019-05-02T10:43:08.716Z,40.80
2019-05-02T10:45:39.044Z,41.25
2019-05-02T10:48:21.505Z,44.55
2019-05-02T10:50:44.355Z,42.45
2019-05-02T10:53:15.721Z,39.98
2019-05-02T10:55:44.113Z,42.65
2019-05-02T10:58:13.098Z,43.23
2019-05-02T11:00:45.269Z,40.00
2019-05-02T11:03:28.282Z,40.35
2019-05-02T11:06:05.653Z,42.05
2019-05-02T11:08:31.717Z,40.85
2019-05-02T11:11:02.357Z,39.83
2019-05-02T11:13:55.397Z,38.42
2019-05-02T11:16:42.846Z,39.27
2019-05-02T11:19:45.830Z,38.98
2019-05-02T11:22:15.006Z,38.15
2019-05-02T11:24:43.850Z,40.12
2019-05-02T11:27:12.900Z,39.23
2019-05-02T11:29:42.607Z,39.50
2019-05-02T11:32:12.825Z,38.83
2019-05-02T11:34:42.102Z,38.30
2019-05-02T11:37:12.132Z,38.48
2019-05-02T11:39:46.526Z,38.90
2019-05-02T11:42:12.535Z,38.55
2019-05-02T11:44:41.869Z,37.53
2019-05-02T11:47:12.584Z,38.30
2019-05-02T11:49:42.530Z,36.35
2019-05-02T11:52:12.609Z,37.28
2019-05-02T11:54:46.814Z,35.20
2019-05-02T11:57:12.090Z,35.58
2019-05-02T11:59:42.504Z,36.73
2019-05-02T12:02:21.954Z,37.83
2019-05-02T12:04:54.280Z,35.05
2019-05-02T12:07:23.093Z,35.85
2019-05-02T12:09:57.020Z,35.33
2019-05-02T12:12:27.335Z,35.83
2019-05-02T12:14:53.926Z,34.95
2019-05-02T12:17:22.856Z,35.40
2019-05-02T12:19:52.344Z,32.45
2019-05-02T12:22:22.597Z,34.95
2019-05-02T12:24:51.956Z,34.18
2019-05-02T12:27:22.056Z,32.70
2019-05-02T12:29:57.754Z,34.05
2019-05-02T12:32:22.463Z,34.55
2019-05-02T12:34:52.627Z,33.33
2019-05-02T12:37:22.002Z,34.98
2019-05-02T12:39:51.711Z,34.23
2019-05-02T12:42:23.823Z,33.25
2019-05-02T12:44:53.239Z,32.33
2019-05-02T12:47:22.630Z,32.00
2019-05-02T12:49:52.053Z,32.73
2019-05-02T12:52:22.541Z,34.23
2019-05-02T12:54:52.563Z,33.05
2019-05-02T12:57:22.045Z,32.28
2019-05-02T12:59:52.480Z,30.43
2019-05-02T13:02:35.260Z,26.97
2019-05-02T13:05:04.481Z,23.70
2019-05-02T13:07:33.405Z,23.45
2019-05-02T13:10:02.583Z,23.20
2019-05-02T13:12:34.655Z,20.70
2019-05-02T13:15:03.819Z,23.07
2019-05-02T13:17:37.200Z,22.00
2019-05-02T13:20:04.613Z,24.20
2019-05-02T13:22:55.941Z,20.08
2019-05-02T13:25:27.406Z,19.47
2019-05-02T13:27:56.949Z,17.95
2019-05-02T13:30:42.971Z,17.25
2019-05-02T13:33:08.007Z,18.30
2019-05-02T13:35:49.260Z,19.80
2019-05-02T13:38:22.395Z,17.40
2019-05-02T13:40:51.835Z,19.42
2019-05-02T13:43:22.589Z,20.73
2019-05-02T13:46:15.381Z,20.17
2019-05-02T13:48:44.321Z,19.43
2019-05-02T13:51:13.299Z,18.90
2019-05-02T13:53:54.830Z,20.63
2019-05-02T13:56:45.748Z,19.27
2019-05-02T13:59:15.218Z,18.40
2019-05-02T14:01:45.341Z,17.10
2019-05-02T14:04:15.187Z,18.27
2019-05-02T14:06:44.477Z,18.00
2019-05-02T14:09:43.888Z,18.80
2019-05-02T14:12:32.092Z,16.07
2019-05-02T14:15:02.999Z,16.73
2019-05-02T14:17:32.619Z,16.37
2019-05-02T14:20:10.445Z,15.73
2019-05-02T14:22:32.599Z,16.42
2019-05-02T14:25:01.976Z,18.13
2019-05-02T14:27:32.066Z,17.60
2019-05-02T14:30:02.424Z,18.60
2019-05-02T14:32:32.909Z,17.98
2019-05-02T14:35:28.250Z,16.70
2019-05-02T14:38:13.114Z,17.37
2019-05-02T14:40:52.135Z,15.97
2019-05-02T14:43:44.565Z,16.30
2019-05-02T14:46:10.038Z,15.98
2019-05-02T14:48:45.101Z,16.77
2019-05-02T14:51:16.649Z,17.57
2019-05-02T14:53:43.231Z,17.17
2019-05-02T14:56:17.216Z,17.17
2019-05-02T14:58:46.233Z,19.57
2019-05-02T15:01:17.243Z,17.93
2019-05-02T15:03:45.983Z,18.87
2019-05-02T15:06:15.097Z,17.67
2019-05-02T15:08:44.986Z,17.07
2019-05-02T15:11:13.951Z,18.07
2019-05-02T15:13:43.652Z,18.67
2019-05-02T15:16:18.006Z,19.77
2019-05-02T15:18:47.525Z,19.70
2019-05-02T15:21:22.883Z,18.23
2019-05-02T15:23:54.435Z,18.03
2019-05-02T15:26:26.452Z,18.70
2019-05-02T15:28:53.475Z,18.53
2019-05-02T15:31:28.554Z,18.03
2019-05-02T15:34:11.994Z,22.00
2019-05-02T15:36:45.742Z,24.10
2019-05-02T15:41:44.797Z,28.07
2019-05-02T15:44:14.665Z,31.97
2019-05-02T15:46:43.702Z,30.03
2019-05-02T15:49:12.638Z,29.93
2019-05-02T15:51:45.061Z,30.67
2019-05-02T15:54:12.658Z,28.20
2019-05-02T15:57:00.694Z,27.47
2019-05-02T15:59:32.668Z,27.47
2019-05-02T16:02:08.047Z,27.83
2019-05-02T16:04:38.486Z,33.07
2019-05-02T16:07:08.495Z,29.40
2019-05-02T16:09:37.690Z,27.67
2019-05-02T16:12:06.726Z,27.90
2019-05-02T16:14:36.134Z,30.50
2019-05-02T16:17:05.429Z,29.87
2019-05-02T16:19:38.699Z,34.23
2019-05-02T16:22:12.932Z,36.87
2019-05-02T16:24:43.997Z,36.87
2019-05-02T16:27:16.548Z,39.57
2019-05-02T16:29:43.417Z,37.50
2019-05-02T16:32:35.634Z,33.47
2019-05-02T16:35:12.203Z,22.40
2019-05-02T16:37:37.138Z,15.37
2019-05-02T16:40:08.053Z,16.60
2019-05-02T16:42:37.494Z,18.60
2019-05-02T16:45:08.753Z,20.80
2019-05-02T16:47:37.763Z,23.03
2019-05-02T16:50:08.041Z,23.40
2019-05-02T16:52:38.030Z,23.97
2019-05-02T16:55:13.673Z,25.67
2019-05-02T16:57:39.558Z,25.17
2019-05-02T17:00:11.354Z,29.27
2019-05-02T17:02:43.545Z,32.07
2019-05-02T17:05:12.139Z,32.67
2019-05-02T17:07:54.515Z,32.37
2019-05-02T17:10:28.411Z,34.47
2019-05-02T17:13:02.630Z,33.87
2019-05-02T17:15:35.682Z,36.20
2019-05-02T17:18:12.774Z,35.13
2019-05-02T17:20:37.355Z,34.63
2019-05-02T17:23:07.594Z,33.70
2019-05-02T17:25:37.064Z,31.60
2019-05-02T17:28:10.378Z,34.37
2019-05-02T17:30:39.004Z,31.57
2019-05-02T17:33:14.465Z,31.23
2019-05-02T17:35:43.425Z,34.80
2019-05-02T17:38:09.636Z,36.47
2019-05-02T17:40:38.550Z,34.03
2019-05-02T17:43:07.603Z,32.60
2019-05-02T17:45:38.745Z,33.53
2019-05-02T17:48:15.258Z,34.00
2019-05-02T17:51:02.291Z,33.97
2019-05-02T17:53:33.611Z,33.67
2019-05-02T17:56:02.125Z,30.77
2019-05-02T17:58:31.837Z,31.07
2019-05-02T18:01:02.797Z,29.27
2019-05-02T18:03:35.165Z,29.93
2019-05-02T18:06:07.717Z,30.40
2019-05-02T18:08:34.442Z,29.30
2019-05-02T18:11:03.532Z,27.43
2019-05-02T18:13:33.853Z,27.00
2019-05-02T18:16:07.667Z,27.60
2019-05-02T18:18:37.559Z,26.27
2019-05-02T18:21:05.217Z,26.50
2019-05-02T18:23:36.311Z,26.93
2019-05-02T18:26:06.382Z,25.63
2019-05-02T18:28:46.250Z,25.53
2019-05-02T18:31:06.460Z,25.17
2019-05-02T18:33:35.944Z,24.53
2019-05-02T18:36:06.724Z,24.40
2019-05-02T18:38:35.871Z,23.93
2019-05-02T18:41:06.162Z,22.70
2019-05-02T18:43:36.114Z,21.87
2019-05-02T18:46:07.695Z,21.83
2019-05-02T18:48:44.223Z,22.20
2019-05-02T18:51:07.689Z,20.67
2019-05-02T18:53:36.547Z,18.97
2019-05-02T18:56:05.596Z,21.50
2019-05-02T18:58:36.392Z,20.47
2019-05-02T19:01:08.381Z,20.50
2019-05-02T19:03:37.769Z,18.83
2019-05-02T19:06:06.781Z,19.30
2019-05-02T19:08:45.634Z,19.97
2019-05-02T19:11:12.244Z,20.43
2019-05-02T19:13:42.741Z,21.47
2019-05-02T19:16:12.919Z,18.63
2019-05-02T19:18:42.521Z,20.90
2019-05-02T19:21:12.595Z,21.33
2019-05-02T19:23:42.505Z,22.17
2019-05-02T19:26:19.210Z,20.37
2019-05-02T19:29:14.095Z,22.63
2019-05-02T19:31:48.009Z,21.53
2019-05-02T19:34:22.937Z,23.57
2019-05-02T19:36:52.652Z,24.07
2019-05-02T19:39:24.037Z,22.70
2019-05-02T19:41:52.535Z,23.53
2019-05-02T19:44:29.206Z,24.07
2019-05-02T19:46:52.414Z,23.60
2019-05-02T19:49:22.410Z,25.73
2019-05-02T19:51:56.650Z,25.60
2019-05-02T19:54:23.225Z,25.20
2019-05-02T19:56:52.535Z,25.10
2019-05-02T19:59:25.358Z,26.17
2019-05-02T20:01:56.812Z,24.57
2019-05-02T20:04:29.440Z,26.00
2019-05-02T20:07:05.740Z,26.87
2019-05-02T20:09:38.146Z,25.43
2019-05-02T20:12:15.484Z,25.23
2019-05-02T20:15:01.748Z,25.73
2019-05-02T20:17:32.539Z,22.67
2019-05-02T20:20:07.055Z,25.43
2019-05-02T20:22:36.289Z,23.27
2019-05-02T20:25:06.314Z,25.17
2019-05-02T20:27:35.702Z,25.13
2019-05-02T20:30:05.939Z,24.93
2019-05-02T20:32:35.817Z,23.53
2019-05-02T20:35:04.938Z,24.63
2019-05-02T20:37:33.970Z,24.60
2019-05-02T20:40:03.053Z,25.57
2019-05-02T20:42:32.293Z,25.97
2019-05-02T20:45:02.705Z,23.63
2019-05-02T20:47:31.783Z,25.43
2019-05-02T20:50:02.675Z,27.37
2019-05-02T20:52:32.345Z,25.90
2019-05-02T20:55:01.848Z,27.07
2019-05-02T20:57:31.835Z,26.37
2019-05-02T21:00:01.639Z,25.50
2019-05-02T21:02:31.896Z,26.57
2019-05-02T21:05:02.761Z,23.63
2019-05-02T21:08:06.239Z,24.83
2019-05-02T21:10:38.561Z,25.33
2019-05-02T21:13:07.604Z,24.73
2019-05-02T21:15:36.654Z,20.87
2019-05-02T21:18:05.845Z,21.63
2019-05-02T21:20:35.278Z,18.90
2019-05-02T21:23:04.385Z,19.60
2019-05-02T21:25:33.569Z,19.93
2019-05-02T21:28:02.902Z,20.43
2019-05-02T21:30:34.161Z,20.13
2019-05-02T21:33:03.181Z,21.53
2019-05-02T21:35:32.365Z,21.83
2019-05-02T21:38:01.380Z,20.67
2019-05-02T21:40:32.556Z,21.40
2019-05-02T21:43:02.478Z,22.50
2019-05-02T21:45:32.052Z,22.10
2019-05-02T21:48:02.314Z,23.07
2019-05-02T21:50:40.014Z,23.80
2019-05-02T21:53:19.793Z,22.23
2019-05-02T21:56:02.898Z,21.90
2019-05-02T21:58:32.408Z,17.63
2019-05-02T22:01:09.428Z,15.47
2019-05-02T22:03:39.320Z,14.47
2019-05-02T22:06:08.500Z,13.73
2019-05-02T22:08:37.547Z,11.53
2019-05-02T22:11:06.680Z,10.77
2019-05-02T22:13:36.104Z,10.90
2019-05-02T22:16:05.177Z,11.57
2019-05-02T22:18:34.153Z,8.97
2019-05-02T22:21:03.235Z,10.43
2019-05-02T22:23:33.987Z,9.40
2019-05-02T22:26:03.109Z,8.97
2019-05-02T22:28:32.717Z,9.10
2019-05-02T22:31:03.233Z,9.07
2019-05-02T22:33:32.808Z,8.17
2019-05-02T22:36:01.983Z,9.47
2019-05-02T22:38:38.647Z,9.37
2019-05-02T22:41:07.720Z,10.30
2019-05-02T22:43:36.672Z,10.00
2019-05-02T22:46:06.864Z,10.53
2019-05-02T22:48:35.813Z,9.80
2019-05-02T22:51:04.818Z,10.57
2019-05-02T22:53:33.743Z,10.50
2019-05-02T22:56:03.149Z,10.37
2019-05-02T22:58:32.657Z,9.87
2019-05-02T23:01:01.920Z,9.70
2019-05-02T23:03:32.711Z,9.27
2019-05-02T23:06:01.817Z,9.27
2019-05-02T23:08:30.914Z,9.53
2019-05-02T23:10:59.911Z,8.87
2019-05-02T23:13:28.814Z,8.17
2019-05-02T23:15:57.755Z,8.00
2019-05-02T23:18:26.708Z,7.67
2019-05-02T23:20:55.590Z,9.53
2019-05-02T23:23:24.500Z,9.30
2019-05-02T23:26:12.844Z,8.17
2019-05-02T23:28:44.171Z,8.90
2019-05-02T23:31:14.022Z,8.47
2019-05-02T23:33:58.195Z,8.83
2019-05-02T23:36:28.700Z,8.00
2019-05-02T23:38:58.075Z,8.40
2019-05-02T23:41:27.419Z,8.67
2019-05-02T23:43:56.536Z,9.23
2019-05-02T23:46:25.454Z,8.67
2019-05-02T23:48:54.303Z,7.93
2019-05-02T23:51:23.303Z,9.43
2019-05-02T23:53:52.814Z,9.03
2019-05-02T23:56:22.138Z,9.07
2019-05-02T23:58:51.959Z,8.40
